LavenderCAM.net
Leatherhead Weather
 
Leatherhead Weather
 
 





Aviation weather for

London Heathrow (EGLL) and London Gatwick (EGKK)



London Heathrow (EGLL) METAR / Surface Actual
London / Heathrow Airport, United Kingdom (EGLL) 51-29N 000-27W 0M
Aug 07, 2020 - 01:20 PM EDT / 2020.08.07 1720 UTC
Wind: from the S (180 degrees) at 9 MPH (8 KT):0
Visibility: greater than 7 mile(s):0
Temperature: 89 F (32 C)
Dew Point: 48 F (9 C)
Relative Humidity: 24%
Pressure (altimeter): 30.03 in. Hg (1017 hPa)
ob: EGLL 071720Z AUTO 18008KT 9999 NCD 32/09 Q1017 NOSIG
cycle: 17
London Heathrow (EGLL) TAF / Forecast
2020/08/07 12:09
TAF EGLL 071055Z 0712/0818 09005KT CAVOK PROB40 0714/0718 18010KT


London Gatwick (EGKK) METAR / Surface Actual
London / Gatwick Airport, United Kingdom (EGKK) 51-09N 000-11W 0M
Aug 07, 2020 - 01:20 PM EDT / 2020.08.07 1720 UTC
Wind: from the ESE (120 degrees) at 6 MPH (5 KT):0
Visibility: greater than 7 mile(s):0
Temperature: 87 F (31 C)
Dew Point: 50 F (10 C)
Relative Humidity: 27%
Pressure (altimeter): 30.00 in. Hg (1016 hPa)
ob: EGKK 071720Z 12005KT CAVOK 31/10 Q1016
cycle: 17
London Gatwick (EGKK) TAF / Forecast
2020/08/07 12:09
TAF EGKK 071056Z 0712/0818 09003KT CAVOK 
      BECMG 0712/0715 19010KT 
      BECMG 0717/0720 07004KT 
      BECMG 0810/0813 13010KT